Time,TemperatureF,DewpointF,PressureIn,WindDirection,WindDirectionDegrees,WindSpeedMPH,WindSpeedGustMPH,Humidity,HourlyPrecipIn,Conditions,Clouds,dailyrainin,SoftwareType,DateUTC
2013-07-12 00:00:00,51.2,39.5,29.67,ESE,112,0.0,2.0,64,0.00,,---,0.00,VWS V14.01,2013-07-12 07:00:00,
2013-07-12 01:00:00,47.6,41.8,29.67,ESE,112,0.0,1.0,80,0.00,,---,0.00,VWS V14.01,2013-07-12 08:00:00,
2013-07-12 02:00:00,45.6,39.2,29.67,ESE,112,0.0,0.0,78,0.00,,---,0.00,VWS V14.01,2013-07-12 09:00:00,
2013-07-12 03:00:00,44.4,38.0,29.68,ESE,112,0.0,0.0,78,0.00,,---,0.00,VWS V14.01,2013-07-12 10:00:00,
2013-07-12 04:00:00,43.9,39.4,29.70,ESE,112,0.0,0.0,84,0.00,,---,0.00,VWS V14.01,2013-07-12 11:00:00,
2013-07-12 05:00:00,46.1,38.6,29.71,ESE,112,0.0,1.0,75,0.00,,---,0.00,VWS V14.01,2013-07-12 12:00:00,
2013-07-12 06:00:00,48.5,39.9,29.72,ESE,112,0.0,2.0,72,0.00,,---,0.00,VWS V14.01,2013-07-12 13:00:00,
2013-07-12 07:00:00,49.7,42.8,29.73,ESE,112,0.0,2.0,77,0.00,,---,0.00,VWS V14.01,2013-07-12 14:00:00,
2013-07-12 08:05:00,49.7,42.8,29.73,ESE,112,0.0,2.0,77,0.00,,---,0.00,VWS V14.01,2013-07-12 15:05:00,
2013-07-12 08:10:00,54.5,43.0,29.74,SW,219,1.0,2.0,65,0.00,,---,0.00,VWS V14.01,2013-07-12 15:10:00,
2013-07-12 08:15:00,54.9,42.6,29.74,SW,225,0.0,5.0,63,0.00,,---,0.00,VWS V14.01,2013-07-12 15:15:00,
2013-07-12 08:20:00,55.2,44.0,29.74,SW,220,1.0,5.0,66,0.00,,---,0.00,VWS V14.01,2013-07-12 15:20:00,
2013-07-12 08:25:00,55.6,43.6,29.74,South,176,0.0,5.0,64,0.00,,---,0.00,VWS V14.01,2013-07-12 15:25:00,
2013-07-12 08:30:00,55.8,41.7,29.74,SW,225,3.0,5.0,59,0.00,,---,0.00,VWS V14.01,2013-07-12 15:30:00,
2013-07-12 08:35:00,56.1,42.8,29.74,South,171,2.0,5.0,61,0.00,,---,0.00,VWS V14.01,2013-07-12 15:35:00,
2013-07-12 08:40:00,56.3,43.0,29.74,South,171,2.0,5.0,61,0.00,,---,0.00,VWS V14.01,2013-07-12 15:40:00,
2013-07-12 08:45:00,57.0,42.8,29.74,South,171,1.0,5.0,59,0.00,,---,0.00,VWS V14.01,2013-07-12 15:45:00,
2013-07-12 08:50:00,57.4,43.6,29.75,South,171,0.0,5.0,60,0.00,,---,0.00,VWS V14.01,2013-07-12 15:50:00,
2013-07-12 08:55:00,57.9,44.1,29.75,SW,233,0.0,5.0,60,0.00,,---,0.00,VWS V14.01,2013-07-12 15:55:00,
2013-07-12 09:00:00,58.2,43.5,29.75,SSE,155,0.0,5.0,58,0.00,,---,0.00,VWS V14.01,2013-07-12 16:00:00,
2013-07-12 09:05:00,58.6,43.4,29.75,WSW,250,3.0,3.0,57,0.00,,---,0.00,VWS V14.01,2013-07-12 16:05:00,
2013-07-12 09:10:00,58.5,42.9,29.74,SW,227,0.0,5.0,56,0.00,,---,0.00,VWS V14.01,2013-07-12 16:10:00,
2013-07-12 09:15:00,59.2,42.6,29.75,SW,227,3.0,5.0,54,0.00,,---,0.00,VWS V14.01,2013-07-12 16:15:00,
2013-07-12 09:20:00,59.6,42.0,29.75,SW,227,0.0,5.0,52,0.00,,---,0.00,VWS V14.01,2013-07-12 16:20:00,
2013-07-12 09:25:00,60.3,45.0,29.75,SW,227,0.0,5.0,57,0.00,,---,0.00,VWS V14.01,2013-07-12 16:25:00,
2013-07-12 09:30:00,60.6,45.3,29.75,WSW,238,0.0,5.0,57,0.00,,---,0.00,VWS V14.01,2013-07-12 16:30:00,
2013-07-12 09:35:00,60.9,42.7,29.74,SSW,213,0.0,5.0,51,0.00,,---,0.00,VWS V14.01,2013-07-12 16:35:00,
2013-07-12 09:40:00,61.1,43.4,29.75,SSW,212,0.0,5.0,52,0.00,,---,0.00,VWS V14.01,2013-07-12 16:40:00,
2013-07-12 09:45:00,62.6,42.1,29.75,South,190,0.0,5.0,47,0.00,,---,0.00,VWS V14.01,2013-07-12 16:45:00,
2013-07-12 09:50:00,63.0,43.0,29.74,SW,214,3.0,5.0,48,0.00,,---,0.00,VWS V14.01,2013-07-12 16:50:00,
2013-07-12 09:55:00,63.1,42.0,29.74,SSW,195,0.0,5.0,46,0.00,,---,0.00,VWS V14.01,2013-07-12 16:55:00,
2013-07-12 10:00:00,64.0,44.5,29.74,WSW,239,3.0,5.0,49,0.00,,---,0.00,VWS V14.01,2013-07-12 17:00:00,
2013-07-12 10:05:00,64.5,43.3,29.75,SW,229,0.0,4.0,46,0.00,,---,0.00,VWS V14.01,2013-07-12 17:05:00,
2013-07-12 10:10:00,63.3,42.8,29.75,SSW,194,0.0,6.0,47,0.00,,---,0.00,VWS V14.01,2013-07-12 17:10:00,
2013-07-12 10:16:00,62.8,42.8,29.75,WNW,298,1.0,6.0,48,0.00,,---,0.00,VWS V14.01,2013-07-12 17:16:00,
2013-07-12 10:21:00,63.1,43.7,29.75,WNW,297,1.0,6.0,49,0.00,,---,0.00,VWS V14.01,2013-07-12 17:21:00,
2013-07-12 10:26:00,63.4,43.4,29.75,SSW,194,0.0,6.0,48,0.00,,---,0.00,VWS V14.01,2013-07-12 17:26:00,
2013-07-12 10:32:00,63.1,44.7,29.75,SSW,205,0.0,6.0,51,0.00,,---,0.00,VWS V14.01,2013-07-12 17:32:00,
2013-07-12 10:37:00,63.1,43.1,29.75,SSW,205,0.0,6.0,48,0.00,,---,0.00,VWS V14.01,2013-07-12 17:37:00,
2013-07-12 10:42:00,63.3,43.3,29.75,SSW,192,0.0,6.0,48,0.00,,---,0.00,VWS V14.01,2013-07-12 17:42:00,
2013-07-12 10:47:00,64.3,45.8,29.75,SW,226,0.0,6.0,51,0.00,,---,0.00,VWS V14.01,2013-07-12 17:47:00,
2013-07-12 10:53:00,64.7,45.1,29.75,SW,221,2.0,7.0,49,0.00,,---,0.00,VWS V14.01,2013-07-12 17:53:00,
2013-07-12 10:58:00,66.5,45.7,29.75,SW,223,1.0,7.0,47,0.00,,---,0.00,VWS V14.01,2013-07-12 17:58:00,
2013-07-12 11:00:00,66.6,47.9,29.74,SW,232,1.0,7.0,51,0.00,,---,0.00,VWS V14.01,2013-07-12 18:00:00,
2013-07-12 11:03:00,66.7,42.3,29.74,SSW,192,1.0,5.0,41,0.00,,---,0.00,VWS V14.01,2013-07-12 18:03:00,
2013-07-12 11:08:00,67.9,43.4,29.74,SW,232,2.0,5.0,41,0.00,,---,0.00,VWS V14.01,2013-07-12 18:08:00,
2013-07-12 11:13:00,67.6,44.3,29.74,West,259,3.0,7.0,43,0.00,,---,0.00,VWS V14.01,2013-07-12 18:13:00,
2013-07-12 11:18:00,68.1,46.6,29.74,SW,226,2.0,7.0,46,0.00,,---,0.00,VWS V14.01,2013-07-12 18:18:00,
2013-07-12 11:24:00,68.4,45.0,29.74,SSE,167,1.0,7.0,43,0.00,,---,0.00,VWS V14.01,2013-07-12 18:24:00,
2013-07-12 11:29:00,68.8,42.9,29.74,SE,128,5.0,7.0,39,0.00,,---,0.00,VWS V14.01,2013-07-12 18:29:00,
2013-07-12 11:34:00,69.2,44.5,29.74,WSW,246,2.0,7.0,41,0.00,,---,0.00,VWS V14.01,2013-07-12 18:34:00,
2013-07-12 12:32:00,71.2,38.2,29.74,SSW,207,5.0,8.0,30,0.00,,---,0.00,VWS V14.01,2013-07-12 19:32:00,
2013-07-12 12:37:00,70.8,38.7,29.74,SW,231,3.0,8.0,31,0.00,,---,0.00,VWS V14.01,2013-07-12 19:37:00,
2013-07-12 12:42:00,71.0,39.7,29.74,SW,214,1.0,8.0,32,0.00,,---,0.00,VWS V14.01,2013-07-12 19:42:00,
2013-07-12 12:47:00,72.0,40.6,29.74,North,355,3.0,8.0,32,0.00,,---,0.00,VWS V14.01,2013-07-12 19:47:00,
2013-07-12 12:53:00,72.3,41.6,29.74,SW,217,4.0,8.0,33,0.00,,---,0.00,VWS V14.01,2013-07-12 19:53:00,
2013-07-12 12:58:00,72.3,38.3,29.73,SSW,210,4.0,8.0,29,0.00,,---,0.00,VWS V14.01,2013-07-12 19:58:00,
2013-07-12 13:04:00,72.8,37.8,29.73,SE,128,5.0,9.0,28,0.00,,---,0.00,VWS V14.01,2013-07-12 20:04:00,
2013-07-12 13:09:00,72.4,38.4,29.73,SW,221,2.0,9.0,29,0.00,,---,0.00,VWS V14.01,2013-07-12 20:09:00,
2013-07-12 13:14:00,72.4,38.4,29.73,SW,232,2.0,10.0,29,0.00,,---,0.00,VWS V14.01,2013-07-12 20:14:00,
2013-07-12 13:19:00,72.4,38.4,29.73,South,180,3.0,10.0,29,0.00,,---,0.00,VWS V14.01,2013-07-12 20:19:00,
2013-07-12 13:24:00,72.2,38.2,29.73,SE,136,1.0,10.0,29,0.00,,---,0.00,VWS V14.01,2013-07-12 20:24:00,
2013-07-12 13:30:00,72.6,36.7,29.73,South,176,2.0,10.0,27,0.00,,---,0.00,VWS V14.01,2013-07-12 20:30:00,
2013-07-12 13:35:00,72.8,44.3,29.73,West,273,4.0,10.0,36,0.00,,---,0.00,VWS V14.01,2013-07-12 20:35:00,
2013-07-12 13:40:00,72.1,42.2,29.73,SSW,198,2.0,10.0,34,0.00,,---,0.00,VWS V14.01,2013-07-12 20:40:00,
2013-07-12 13:45:00,72.2,36.4,29.74,West,280,1.0,10.0,27,0.00,,---,0.00,VWS V14.01,2013-07-12 20:45:00,
2013-07-12 13:51:00,72.8,45.0,29.74,SSE,164,2.0,10.0,37,0.00,,---,0.00,VWS V14.01,2013-07-12 20:51:00,
2013-07-12 13:56:00,72.2,38.2,29.74,SSW,200,1.0,10.0,29,0.00,,---,0.00,VWS V14.01,2013-07-12 20:56:00,
2013-07-12 14:00:00,73.1,43.1,29.74,West,267,4.0,10.0,34,0.00,,---,0.00,VWS V14.01,2013-07-12 21:00:00,
2013-07-12 14:01:00,72.9,42.9,29.74,WNW,291,6.0,10.0,34,0.00,,---,0.00,VWS V14.01,2013-07-12 21:01:00,
2013-07-12 14:06:00,74.2,46.3,29.73,ESE,108,1.0,4.0,37,0.00,,---,0.00,VWS V14.01,2013-07-12 21:06:00,
2013-07-12 14:11:00,73.9,38.8,29.73,NNE,18,1.0,6.0,28,0.00,,---,0.00,VWS V14.01,2013-07-12 21:11:00,
2013-07-12 14:16:00,74.2,38.1,29.73,SSW,213,2.0,6.0,27,0.00,,---,0.00,VWS V14.01,2013-07-12 21:16:00,
2013-07-12 14:21:00,73.4,41.8,29.73,SW,220,2.0,6.0,32,0.00,,---,0.00,VWS V14.01,2013-07-12 21:21:00,
2013-07-12 14:27:00,73.7,35.7,29.72,NW,326,0.0,6.0,25,0.00,,---,0.00,VWS V14.01,2013-07-12 21:27:00,
2013-07-12 14:32:00,74.0,37.0,29.72,SSE,147,0.0,6.0,26,0.00,,---,0.00,VWS V14.01,2013-07-12 21:32:00,
2013-07-12 14:37:00,74.1,37.1,29.72,NE,40,3.0,6.0,26,0.00,,---,0.00,VWS V14.01,2013-07-12 21:37:00,
2013-07-12 14:42:00,74.5,43.5,29.72,West,275,2.0,7.0,33,0.00,,---,0.00,VWS V14.01,2013-07-12 21:42:00,
2013-07-12 14:48:00,74.5,35.4,29.72,WNW,295,1.0,7.0,24,0.00,,---,0.00,VWS V14.01,2013-07-12 21:48:00,
2013-07-12 14:53:00,74.1,39.8,29.72,NNW,329,2.0,8.0,29,0.00,,---,0.00,VWS V14.01,2013-07-12 21:53:00,
2013-07-12 14:58:00,74.2,39.0,29.73,NW,317,2.0,8.0,28,0.00,,---,0.00,VWS V14.01,2013-07-12 21:58:00,
2013-07-12 15:00:00,73.7,35.7,29.72,SSW,198,1.0,8.0,25,0.00,,---,0.00,VWS V14.01,2013-07-12 22:00:00,
2013-07-12 15:03:00,74.0,36.0,29.72,South,169,4.0,4.0,25,0.00,,---,0.00,VWS V14.01,2013-07-12 22:03:00,
2013-07-12 15:08:00,74.3,35.2,29.72,WNW,289,2.0,10.0,24,0.00,,---,0.00,VWS V14.01,2013-07-12 22:08:00,
2013-07-12 15:13:00,74.3,39.1,29.72,NE,40,1.0,10.0,28,0.00,,---,0.00,VWS V14.01,2013-07-12 22:13:00,
2013-07-12 15:18:00,74.1,38.0,29.72,WSW,242,3.0,10.0,27,0.00,,---,0.00,VWS V14.01,2013-07-12 22:18:00,
2013-07-12 15:23:00,73.7,34.7,29.72,NW,316,4.0,10.0,24,0.00,,---,0.00,VWS V14.01,2013-07-12 22:23:00,
2013-07-12 15:29:00,73.7,40.4,29.72,SW,224,7.0,10.0,30,0.00,,---,0.00,VWS V14.01,2013-07-12 22:29:00,
2013-07-12 15:34:00,74.0,33.9,29.72,ENE,71,0.0,10.0,23,0.00,,---,0.00,VWS V14.01,2013-07-12 22:34:00,
2013-07-12 15:39:00,74.1,42.4,29.72,WNW,285,5.0,10.0,32,0.00,,---,0.00,VWS V14.01,2013-07-12 22:39:00,
2013-07-12 15:44:00,73.2,37.2,29.72,NNW,341,2.0,10.0,27,0.00,,---,0.00,VWS V14.01,2013-07-12 22:44:00,
2013-07-12 15:50:00,72.5,35.7,29.72,South,173,0.0,10.0,26,0.00,,---,0.00,VWS V14.01,2013-07-12 22:50:00,
2013-07-12 15:55:00,72.7,33.9,29.72,West,261,1.0,10.0,24,0.00,,---,0.00,VWS V14.01,2013-07-12 22:55:00,
2013-07-12 16:00:00,72.8,41.3,29.72,SSW,209,2.0,10.0,32,0.00,,---,0.00,VWS V14.01,2013-07-12 23:00:00,
2013-07-12 16:05:00,72.6,33.8,29.72,SW,227,1.0,4.0,24,0.00,,---,0.00,VWS V14.01,2013-07-12 23:05:00,
2013-07-12 16:10:00,72.8,40.4,29.72,WNW,293,1.0,4.0,31,0.00,,---,0.00,VWS V14.01,2013-07-12 23:10:00,
2013-07-12 16:16:00,73.7,43.6,29.72,SW,221,2.0,5.0,34,0.00,,---,0.00,VWS V14.01,2013-07-12 23:16:00,
2013-07-12 16:21:00,73.3,35.4,29.73,NW,315,0.0,5.0,25,0.00,,---,0.00,VWS V14.01,2013-07-12 23:21:00,
2013-07-12 16:26:00,72.0,38.0,29.73,WNW,284,0.0,5.0,29,0.00,,---,0.00,VWS V14.01,2013-07-12 23:26:00,
2013-07-12 16:31:00,70.9,40.4,29.73,WNW,286,0.0,5.0,33,0.00,,---,0.00,VWS V14.01,2013-07-12 23:31:00,
2013-07-12 16:37:00,70.1,34.6,29.73,West,275,1.0,6.0,27,0.00,,---,0.00,VWS V14.01,2013-07-12 23:37:00,
2013-07-12 16:42:00,70.0,38.8,29.73,NE,46,1.0,6.0,32,0.00,,---,0.00,VWS V14.01,2013-07-12 23:42:00,
2013-07-12 16:48:00,69.7,37.7,29.73,NNE,23,1.0,6.0,31,0.00,,---,0.00,VWS V14.01,2013-07-12 23:48:00,
2013-07-12 16:53:00,69.7,39.3,29.72,SSE,149,0.0,6.0,33,0.00,,---,0.00,VWS V14.01,2013-07-12 23:53:00,
2013-07-12 16:58:00,69.7,36.0,29.72,WNW,282,2.0,6.0,29,0.00,,---,0.00,VWS V14.01,2013-07-12 23:58:00,
2013-07-12 17:00:00,69.5,37.6,29.73,SW,234,2.0,8.0,31,0.00,,---,0.00,VWS V14.01,2013-07-13 00:00:00,
2013-07-12 17:03:00,69.4,37.5,29.73,ENE,70,0.0,3.0,31,0.00,,---,0.00,VWS V14.01,2013-07-13 00:03:00,
2013-07-12 17:08:00,69.9,39.5,29.72,ENE,59,0.0,3.0,33,0.00,,---,0.00,VWS V14.01,2013-07-13 00:08:00,
2013-07-12 17:14:00,71.9,40.5,29.73,North,5,2.0,4.0,32,0.00,,---,0.00,VWS V14.01,2013-07-13 00:14:00,
2013-07-12 17:19:00,72.3,33.5,29.72,NNW,334,0.0,4.0,24,0.00,,---,0.00,VWS V14.01,2013-07-13 00:19:00,
2013-07-12 17:43:00,72.4,35.6,29.72,North,360,5.0,5.0,26,0.00,,---,0.00,VWS V14.01,2013-07-13 00:43:00,
2013-07-12 17:49:00,72.1,33.3,29.72,SSW,201,0.0,6.0,24,0.00,,---,0.00,VWS V14.01,2013-07-13 00:49:00,
2013-07-12 17:54:00,72.4,36.6,29.72,NNE,26,2.0,8.0,27,0.00,,---,0.00,VWS V14.01,2013-07-13 00:54:00,
2013-07-12 17:59:00,71.9,36.1,29.72,North,9,4.0,8.0,27,0.00,,---,0.00,VWS V14.01,2013-07-13 00:59:00,
2013-07-12 18:04:00,71.5,37.6,29.72,North,349,0.0,2.0,29,0.00,,---,0.00,VWS V14.01,2013-07-13 01:04:00,
2013-07-12 18:09:00,71.8,34.1,29.72,NE,36,4.0,5.0,25,0.00,,---,0.00,VWS V14.01,2013-07-13 01:09:00,
2013-07-12 18:15:00,71.5,38.5,29.72,NNE,19,0.0,5.0,30,0.00,,---,0.00,VWS V14.01,2013-07-13 01:15:00,
2013-07-12 18:20:00,71.2,40.7,29.72,NNE,19,0.0,5.0,33,0.00,,---,0.00,VWS V14.01,2013-07-13 01:20:00,
2013-07-12 18:25:00,71.3,34.7,29.72,North,350,0.0,5.0,26,0.00,,---,0.00,VWS V14.01,2013-07-13 01:25:00,
2013-07-12 18:30:00,70.8,36.1,29.72,WNW,293,0.0,5.0,28,0.00,,---,0.00,VWS V14.01,2013-07-13 01:30:00,
2013-07-12 18:35:00,69.3,29.9,29.72,SW,231,0.0,5.0,23,0.00,,---,0.00,VWS V14.01,2013-07-13 01:35:00,
2013-07-12 18:41:00,69.0,37.1,29.72,SW,231,0.0,5.0,31,0.00,,---,0.00,VWS V14.01,2013-07-13 01:41:00,
2013-07-12 18:46:00,69.0,44.3,29.72,SW,231,0.0,5.0,41,0.00,,---,0.00,VWS V14.01,2013-07-13 01:46:00,
2013-07-12 18:51:00,68.6,44.6,29.72,SW,231,0.0,5.0,42,0.00,,---,0.00,VWS V14.01,2013-07-13 01:51:00,
2013-07-12 18:56:00,67.9,43.4,29.72,SW,231,0.0,5.0,41,0.00,,---,0.00,VWS V14.01,2013-07-13 01:56:00,
2013-07-12 19:01:00,67.3,50.1,29.73,SW,231,0.0,0.0,54,0.00,,---,0.00,VWS V14.01,2013-07-13 02:01:00,
2013-07-12 19:07:00,66.7,38.2,29.73,NNW,331,2.0,3.0,35,0.00,,---,0.00,VWS V14.01,2013-07-13 02:07:00,
2013-07-12 19:12:00,66.8,36.8,29.73,North,360,2.0,4.0,33,0.00,,---,0.00,VWS V14.01,2013-07-13 02:12:00,
2013-07-12 19:17:00,66.9,39.1,29.73,North,360,0.0,4.0,36,0.00,,---,0.00,VWS V14.01,2013-07-13 02:17:00,
2013-07-12 19:22:00,66.8,40.4,29.73,North,360,0.0,4.0,38,0.00,,---,0.00,VWS V14.01,2013-07-13 02:22:00,
2013-07-12 19:27:00,66.6,38.8,29.74,SW,234,0.0,5.0,36,0.00,,---,0.00,VWS V14.01,2013-07-13 02:27:00,
2013-07-12 19:32:00,66.4,38.7,29.74,NE,42,1.0,5.0,36,0.00,,---,0.00,VWS V14.01,2013-07-13 02:32:00,
2013-07-12 19:38:00,66.3,37.8,29.74,North,5,0.0,7.0,35,0.00,,---,0.00,VWS V14.01,2013-07-13 02:38:00,
2013-07-12 19:43:00,66.1,37.7,29.74,NW,325,2.0,7.0,35,0.00,,---,0.00,VWS V14.01,2013-07-13 02:43:00,
2013-07-12 19:48:00,65.9,36.8,29.74,North,355,0.0,7.0,34,0.00,,---,0.00,VWS V14.01,2013-07-13 02:48:00,
2013-07-12 19:54:00,65.7,38.0,29.75,NW,319,1.0,7.0,36,0.00,,---,0.00,VWS V14.01,2013-07-13 02:54:00,
2013-07-12 19:59:00,64.9,38.0,29.75,North,350,0.0,7.0,37,0.00,,---,0.00,VWS V14.01,2013-07-13 02:59:00,
2013-07-12 20:04:00,64.4,36.9,29.75,NNW,346,3.0,7.0,36,0.00,,---,0.00,VWS V14.01,2013-07-13 03:04:00,
2013-07-12 20:09:00,64.1,38.0,29.75,NNW,348,1.0,7.0,38,0.00,,---,0.00,VWS V14.01,2013-07-13 03:09:00,
2013-07-12 20:14:00,63.8,37.0,29.75,North,355,0.0,7.0,37,0.00,,---,0.00,VWS V14.01,2013-07-13 03:14:00,
2013-07-12 20:19:00,63.7,37.6,29.75,NW,325,1.0,7.0,38,0.00,,---,0.00,VWS V14.01,2013-07-13 03:19:00,
2013-07-12 20:24:00,63.7,37.0,29.75,North,5,3.0,7.0,37,0.00,,---,0.00,VWS V14.01,2013-07-13 03:24:00,
2013-07-12 20:29:00,63.7,36.3,29.75,NNE,24,2.0,7.0,36,0.00,,---,0.00,VWS V14.01,2013-07-13 03:29:00,
2013-07-12 20:34:00,63.5,36.8,29.75,NNE,22,0.0,7.0,37,0.00,,---,0.00,VWS V14.01,2013-07-13 03:34:00,
2013-07-12 20:39:00,63.1,36.4,29.75,NW,322,0.0,7.0,37,0.00,,---,0.00,VWS V14.01,2013-07-13 03:39:00,
2013-07-12 20:44:00,63.1,37.1,29.75,North,350,2.0,7.0,38,0.00,,---,0.00,VWS V14.01,2013-07-13 03:44:00,
2013-07-12 20:50:00,63.0,37.0,29.75,NNE,19,2.0,7.0,38,0.00,,---,0.00,VWS V14.01,2013-07-13 03:50:00,
2013-07-12 20:55:00,62.9,36.9,29.76,North,360,2.0,7.0,38,0.00,,---,0.00,VWS V14.01,2013-07-13 03:55:00,
2013-07-12 21:00:00,62.6,37.3,29.76,North,355,2.0,7.0,39,0.00,,---,0.00,VWS V14.01,2013-07-13 04:00:00,
2013-07-12 21:01:00,62.6,37.3,29.76,North,355,1.0,7.0,39,0.00,,---,0.00,VWS V14.01,2013-07-13 04:01:00,
2013-07-12 21:02:00,62.5,37.9,29.76,NE,45,3.0,3.0,40,0.00,,---,0.00,VWS V14.01,2013-07-13 04:02:00,
2013-07-12 21:07:00,62.2,41.7,29.76,North,9,2.0,4.0,47,0.00,,---,0.00,VWS V14.01,2013-07-13 04:07:00,
2013-07-12 21:12:00,62.0,38.7,29.76,NW,322,0.0,4.0,42,0.00,,---,0.00,VWS V14.01,2013-07-13 04:12:00,
2013-07-12 21:17:00,61.6,38.9,29.76,North,355,0.0,4.0,43,0.00,,---,0.00,VWS V14.01,2013-07-13 04:17:00,
2013-07-12 21:22:00,61.6,38.3,29.76,North,355,0.0,4.0,42,0.00,,---,0.00,VWS V14.01,2013-07-13 04:22:00,
2013-07-12 21:27:00,61.5,38.2,29.76,North,355,0.0,4.0,42,0.00,,---,0.00,VWS V14.01,2013-07-13 04:27:00,
2013-07-12 21:32:00,61.3,38.6,29.76,North,355,0.0,4.0,43,0.00,,---,0.00,VWS V14.01,2013-07-13 04:32:00,
2013-07-12 21:37:00,60.5,37.9,29.76,NNE,28,0.0,4.0,43,0.00,,---,0.00,VWS V14.01,2013-07-13 04:37:00,
2013-07-12 21:42:00,59.8,40.6,29.77,NNE,28,0.0,4.0,49,0.00,,---,0.00,VWS V14.01,2013-07-13 04:42:00,
2013-07-12 21:47:00,59.3,38.5,29.76,NNE,28,0.0,4.0,46,0.00,,---,0.00,VWS V14.01,2013-07-13 04:47:00,
2013-07-12 21:52:00,58.5,39.4,29.77,NNE,28,0.0,4.0,49,0.00,,---,0.00,VWS V14.01,2013-07-13 04:52:00,
2013-07-12 21:57:00,58.5,39.4,29.77,NNE,28,0.0,4.0,49,0.00,,---,0.00,VWS V14.01,2013-07-13 04:57:00,
2013-07-12 22:02:00,58.0,39.5,29.77,NNE,28,0.0,0.0,50,0.00,,---,0.00,VWS V14.01,2013-07-13 05:02:00,
2013-07-12 22:07:00,57.6,39.6,29.77,NNE,28,0.0,0.0,51,0.00,,---,0.00,VWS V14.01,2013-07-13 05:07:00,
2013-07-12 22:12:00,57.3,40.3,29.77,NNE,28,0.0,0.0,53,0.00,,---,0.00,VWS V14.01,2013-07-13 05:12:00,
2013-07-12 22:17:00,57.0,41.0,29.78,NNE,28,0.0,0.0,55,0.00,,---,0.00,VWS V14.01,2013-07-13 05:17:00,
2013-07-12 22:22:00,56.8,42.6,29.77,NNE,28,0.0,0.0,59,0.00,,---,0.00,VWS V14.01,2013-07-13 05:22:00,
2013-07-12 22:27:00,56.4,41.8,29.78,NNE,28,0.0,0.0,58,0.00,,---,0.00,VWS V14.01,2013-07-13 05:27:00,
2013-07-12 22:32:00,56.2,42.5,29.78,NNE,28,0.0,0.0,60,0.00,,---,0.00,VWS V14.01,2013-07-13 05:32:00,
2013-07-12 22:37:00,55.9,40.9,29.78,NNE,28,0.0,0.0,57,0.00,,---,0.00,VWS V14.01,2013-07-13 05:37:00,
2013-07-12 22:42:00,55.5,41.9,29.78,NNE,28,0.0,0.0,60,0.00,,---,0.00,VWS V14.01,2013-07-13 05:42:00,
2013-07-12 22:47:00,54.9,43.4,29.78,NNE,28,0.0,0.0,65,0.00,,---,0.00,VWS V14.01,2013-07-13 05:47:00,
2013-07-12 22:52:00,54.4,42.5,29.78,NNE,28,0.0,0.0,64,0.00,,---,0.00,VWS V14.01,2013-07-13 05:52:00,
2013-07-12 22:57:00,54.0,42.9,29.78,NNE,28,0.0,0.0,66,0.00,,---,0.00,VWS V14.01,2013-07-13 05:57:00,
2013-07-12 23:02:00,53.3,43.4,29.78,NNE,28,0.0,0.0,69,0.00,,---,0.00,VWS V14.01,2013-07-13 06:02:00,
2013-07-12 23:07:00,53.1,43.2,29.79,NNE,28,0.0,0.0,69,0.00,,---,0.00,VWS V14.01,2013-07-13 06:07:00,
2013-07-12 23:12:00,52.6,42.7,29.79,NNE,28,0.0,0.0,69,0.00,,---,0.00,VWS V14.01,2013-07-13 06:12:00,
2013-07-12 23:17:00,52.2,43.8,29.79,NNE,28,0.0,0.0,73,0.00,,---,0.00,VWS V14.01,2013-07-13 06:17:00,
2013-07-12 23:22:00,51.5,42.8,29.79,NNE,28,0.0,0.0,72,0.00,,---,0.00,VWS V14.01,2013-07-13 06:22:00,
2013-07-12 23:27:00,50.9,41.8,29.79,NNE,28,0.0,0.0,71,0.00,,---,0.00,VWS V14.01,2013-07-13 06:27:00,
2013-07-12 23:32:00,50.1,42.8,29.80,NNE,28,0.0,0.0,76,0.00,,---,0.00,VWS V14.01,2013-07-13 06:32:00,
2013-07-12 23:37:00,49.7,42.5,29.80,NNE,28,0.0,0.0,76,0.00,,---,0.00,VWS V14.01,2013-07-13 06:37:00,
2013-07-12 23:42:00,49.4,42.5,29.80,NNE,28,0.0,0.0,77,0.00,,---,0.00,VWS V14.01,2013-07-13 06:42:00,
2013-07-12 23:47:00,49.2,43.6,29.80,NNE,28,0.0,0.0,81,0.00,,---,0.00,VWS V14.01,2013-07-13 06:47:00,
2013-07-12 23:52:00,48.7,41.5,29.80,NNE,28,0.0,0.0,76,0.00,,---,0.00,VWS V14.01,2013-07-13 06:52:00,
2013-07-12 23:57:00,48.2,40.0,29.81,NNE,28,0.0,0.0,73,0.00,,---,0.00,VWS V14.01,2013-07-13 06:57:00,